createdAt,value
2023-02-04T00:02:02.173Z,95789.34
2023-02-04T00:07:14.189Z,95786.13
2023-02-04T00:09:41.706Z,95787.72
2023-02-04T00:12:39.988Z,95796.59
2023-02-04T00:15:12.738Z,95778.66
2023-02-04T00:17:43.296Z,95780.25
2023-02-04T00:20:10.888Z,95779.47
2023-02-04T00:22:38.079Z,95780.25
2023-02-04T00:25:06.570Z,95781.28
2023-02-04T00:27:33.404Z,95782.28
2023-02-04T00:32:59.536Z,95785.50
2023-02-04T00:35:27.105Z,95794.78
2023-02-04T00:37:58.301Z,95796.78
2023-02-04T00:40:27.232Z,95800.00
2023-02-04T00:42:54.299Z,95789.94
2023-02-04T00:48:06.015Z,95800.00
2023-02-04T00:50:39.711Z,95800.22
2023-02-04T00:53:07.231Z,95796.59
2023-02-04T00:55:35.832Z,95796.59
2023-02-04T00:58:06.001Z,95792.78
2023-02-04T01:00:37.382Z,95801.66
2023-02-04T01:03:14.070Z,95804.28
2023-02-04T01:05:42.568Z,95809.69
2023-02-04T01:08:11.244Z,95816.34
2023-02-04T01:10:37.966Z,95810.09
2023-02-04T01:13:05.272Z,95810.88
2023-02-04T01:18:14.314Z,95823.59
2023-02-04T01:20:41.879Z,95818.13
2023-02-04T01:23:13.022Z,95823.00
2023-02-04T01:25:41.088Z,95829.84
2023-02-04T01:28:07.907Z,95834.84
2023-02-04T01:30:34.873Z,95826.81
2023-02-04T01:33:01.960Z,95820.38
2023-02-04T01:35:31.169Z,95820.16
2023-02-04T01:37:57.935Z,95822.16
2023-02-04T01:40:25.433Z,95833.66
2023-02-04T01:42:53.132Z,95835.25
2023-02-04T01:45:20.084Z,95843.34
2023-02-04T01:47:47.201Z,95848.59
2023-02-04T01:50:19.698Z,95839.91
2023-02-04T01:55:31.324Z,95843.72
2023-02-04T01:58:02.640Z,95835.44
2023-02-04T02:00:32.369Z,95841.47
2023-02-04T02:03:04.268Z,95849.16
2023-02-04T02:05:36.041Z,95838.66
2023-02-04T02:08:08.964Z,95845.34
2023-02-04T02:10:42.633Z,95851.75
2023-02-04T02:13:20.045Z,95851.13
2023-02-04T02:15:48.575Z,95851.13
2023-02-04T02:18:15.959Z,95866.69
2023-02-04T02:20:45.865Z,95861.84
2023-02-04T02:23:23.590Z,95865.47
2023-02-04T02:25:51.954Z,95871.91
2023-02-04T02:28:22.102Z,95866.69
2023-02-04T02:30:50.621Z,95864.22
2023-02-04T02:33:21.670Z,95873.09
2023-02-04T02:35:49.947Z,95874.28
2023-02-04T02:38:18.260Z,95874.47
2023-02-04T02:40:47.036Z,95871.88
2023-02-04T02:43:18.520Z,95868.84
2023-02-04T02:45:45.770Z,95877.25
2023-02-04T02:48:13.536Z,95878.66
2023-02-04T02:50:42.066Z,95881.88
2023-02-04T02:53:11.957Z,95875.22
2023-02-04T02:55:41.031Z,95879.84
2023-02-04T02:58:18.162Z,95880.44
2023-02-04T03:00:46.569Z,95872.00
2023-02-04T03:03:24.487Z,95876.41
2023-02-04T03:05:56.554Z,95884.25
2023-02-04T03:08:23.890Z,95884.06
2023-02-04T03:10:52.056Z,95891.34
2023-02-04T03:13:20.596Z,95891.97
2023-02-04T03:15:54.688Z,95896.78
2023-02-04T03:18:22.771Z,95902.22
2023-02-04T03:20:51.360Z,95920.53
2023-02-04T03:23:18.987Z,95910.06
2023-02-04T03:25:45.845Z,95923.16
2023-02-04T03:28:13.096Z,95930.00
2023-02-04T03:30:39.955Z,95943.72
2023-02-04T03:33:08.355Z,95946.13
2023-02-04T03:35:35.602Z,95936.28
2023-02-04T03:38:03.132Z,95931.25
2023-02-04T03:40:31.109Z,95937.28
2023-02-04T03:42:58.088Z,95950.63
2023-02-04T03:45:25.072Z,95954.03
2023-02-04T03:47:53.813Z,95965.75
2023-02-04T03:50:25.496Z,95975.97
2023-02-04T03:52:54.397Z,95975.97
2023-02-04T03:55:21.413Z,95982.22
2023-02-04T03:57:49.210Z,95986.84
2023-02-04T04:00:16.964Z,96001.56
2023-02-04T04:02:44.690Z,95988.72
2023-02-04T04:05:15.406Z,96002.59
2023-02-04T04:07:46.564Z,96013.84
2023-02-04T04:15:34.778Z,96013.22
2023-02-04T04:18:12.442Z,96034.78
2023-02-04T04:20:39.229Z,96036.97
2023-02-04T04:23:07.456Z,96034.56
2023-02-04T04:25:35.872Z,96034.34
2023-02-04T04:28:02.972Z,96043.84
2023-02-04T04:30:30.470Z,96047.25
2023-02-04T04:32:57.906Z,96062.22
2023-02-04T04:35:24.765Z,96075.94
2023-02-04T04:37:51.825Z,96071.50
2023-02-04T04:40:20.384Z,96068.25
2023-02-04T04:42:50.858Z,96067.63
2023-02-04T04:45:17.929Z,96077.50
2023-02-04T04:47:45.008Z,96081.94
2023-02-04T04:50:12.552Z,96077.88
2023-02-04T04:52:39.417Z,96085.53
2023-02-04T04:55:10.587Z,96078.31
2023-02-04T05:04:08.501Z,96082.28
2023-02-04T05:06:36.912Z,96085.09
2023-02-04T05:09:11.713Z,96089.53
2023-02-04T05:17:06.467Z,96092.56
2023-02-04T05:48:55.558Z,96120.00
2023-02-04T05:51:29.799Z,96125.16
2023-02-04T05:59:19.250Z,96133.97
2023-02-04T06:13:59.809Z,96147.59
2023-02-04T06:30:32.132Z,96174.56
2023-02-04T06:33:02.373Z,96183.97
2023-02-04T06:35:29.503Z,96183.06
2023-02-04T06:40:37.167Z,96202.41
2023-02-04T06:48:59.966Z,96208.94
2023-02-04T07:27:57.949Z,96241.81
2023-02-04T08:19:02.621Z,96280.22
2023-02-04T08:21:33.317Z,96287.50
2023-02-04T08:29:35.118Z,96282.81
2023-02-04T08:35:16.560Z,96286.59
2023-02-04T09:35:30.814Z,96343.59
2023-02-04T09:40:44.847Z,96342.75
2023-02-04T09:43:24.355Z,96342.75
2023-02-04T09:51:47.385Z,96348.94
2023-02-04T09:54:19.808Z,96347.56
2023-02-04T10:02:20.861Z,96346.19
2023-02-04T10:07:33.585Z,96352.56
2023-02-04T10:15:27.246Z,96342.59
2023-02-04T10:20:47.496Z,96345.75
2023-02-04T10:23:15.440Z,96344.69
2023-02-04T10:25:45.416Z,96344.06
2023-02-04T10:28:14.004Z,96344.88
2023-02-04T10:30:47.641Z,96347.38
2023-02-04T10:33:26.801Z,96348.44
2023-02-04T10:35:59.843Z,96351.31
2023-02-04T10:38:34.499Z,96348.13
2023-02-04T10:41:04.714Z,96352.56
2023-02-04T10:43:36.769Z,96358.81
2023-02-04T10:46:05.582Z,96338.66
2023-02-04T10:48:40.498Z,96339.09
2023-02-04T10:51:13.071Z,96332.03
2023-02-04T10:59:38.094Z,96334.66
2023-02-04T11:13:40.873Z,96327.34
2023-02-04T11:16:18.926Z,96328.78
2023-02-04T11:21:46.986Z,96332.09
2023-02-04T11:24:25.265Z,96336.97
2023-02-04T11:26:58.224Z,96339.59
2023-02-04T11:29:54.739Z,96335.41
2023-02-04T11:32:57.930Z,96340.28
2023-02-04T11:35:28.627Z,96343.53
2023-02-04T11:37:56.203Z,96337.09
2023-02-04T11:40:29.909Z,96344.97
2023-02-04T11:42:59.626Z,96342.16
2023-02-04T11:45:30.472Z,96345.75
2023-02-04T11:48:08.799Z,96344.78
2023-02-04T11:53:19.557Z,96349.78
2023-02-04T11:55:47.800Z,96352.03
2023-02-04T11:58:27.161Z,96351.22
2023-02-04T12:04:02.305Z,96347.16
2023-02-04T12:06:34.427Z,96348.34
2023-02-04T12:14:37.281Z,96347.50
2023-02-04T12:25:24.599Z,96345.22
2023-02-04T12:27:52.148Z,96340.34
2023-02-04T12:30:20.680Z,96337.47
2023-02-04T12:32:47.874Z,96340.22
2023-02-04T12:35:18.917Z,96341.97
2023-02-04T12:40:30.367Z,96336.63
2023-02-04T12:42:59.238Z,96337.44
2023-02-04T12:45:26.137Z,96343.25
2023-02-04T12:47:53.321Z,96338.19
2023-02-04T12:50:42.035Z,96337.38
2023-02-04T12:53:16.945Z,96338.09
2023-02-04T12:55:46.882Z,96336.47
2023-02-04T12:58:14.449Z,96338.28
2023-02-04T13:00:46.523Z,96339.06
2023-02-04T13:03:14.701Z,96339.44
2023-02-04T13:06:06.985Z,96340.09
2023-02-04T13:08:34.513Z,96342.72
2023-02-04T13:11:05.120Z,96337.72
2023-02-04T13:18:57.788Z,96345.56
2023-02-04T13:21:31.388Z,96339.22
2023-02-04T13:24:07.509Z,96340.91
2023-02-04T13:29:19.669Z,96348.91
2023-02-04T13:34:29.455Z,96349.81
2023-02-04T13:37:03.517Z,96348.88
2023-02-04T13:39:31.084Z,96350.69
2023-02-04T13:47:21.952Z,96353.19
2023-02-04T13:52:59.708Z,96355.53
2023-02-04T13:55:33.985Z,96367.09
2023-02-04T13:58:08.287Z,96373.13
2023-02-04T14:00:36.998Z,96370.34
2023-02-04T14:05:45.798Z,96379.22
2023-02-04T14:10:55.245Z,96381.16
2023-02-04T14:13:22.878Z,96382.97
2023-02-04T14:18:30.534Z,96393.47
2023-02-04T14:45:44.687Z,96419.41
2023-02-04T14:48:12.625Z,96412.09
2023-02-04T14:53:20.214Z,96407.47
2023-02-04T14:55:47.300Z,96422.84
2023-02-04T14:58:14.250Z,96414.59
2023-02-04T15:04:15.963Z,96418.66
2023-02-04T15:07:14.110Z,96415.16
2023-02-04T15:13:21.054Z,96431.94
2023-02-04T15:16:18.435Z,96434.22
2023-02-04T15:22:06.264Z,96425.91
2023-02-04T15:27:17.781Z,96438.38
2023-02-04T15:29:46.298Z,96437.16
2023-02-04T15:38:12.377Z,96445.78
2023-02-04T15:48:44.082Z,96449.44
2023-02-04T15:51:11.529Z,96452.41
2023-02-04T15:56:21.987Z,96462.75
2023-02-04T16:01:30.700Z,96456.69
2023-02-04T16:03:59.741Z,96455.41
2023-02-04T16:09:08.318Z,96462.41
2023-02-04T16:11:51.660Z,96466.03
2023-02-04T16:17:02.431Z,96474.81
2023-02-04T16:22:11.711Z,96475.81
2023-02-04T16:24:38.970Z,96486.09
2023-02-04T16:29:48.364Z,96493.16
2023-02-04T16:32:15.555Z,96491.53
2023-02-04T16:34:42.688Z,96500.22
2023-02-04T16:45:50.382Z,96512.06
2023-02-04T16:51:00.378Z,96510.25
2023-02-04T16:53:27.656Z,96508.81
2023-02-04T16:56:03.259Z,96508.34
2023-02-04T16:58:30.386Z,96520.00
2023-02-04T17:03:40.954Z,96516.50
2023-02-04T17:06:08.416Z,96520.84
2023-02-04T17:08:35.510Z,96524.31
2023-02-04T17:11:21.509Z,96524.69
2023-02-04T17:13:57.412Z,96526.13
2023-02-04T17:16:28.281Z,96520.53
2023-02-04T17:18:56.955Z,96519.38
2023-02-04T17:21:26.032Z,96527.38
2023-02-04T17:26:38.275Z,96540.16
2023-02-04T17:31:56.556Z,96542.78
2023-02-04T17:34:23.863Z,96545.41
2023-02-04T17:36:51.402Z,96546.38
2023-02-04T17:39:21.836Z,96546.38
2023-02-04T17:41:50.430Z,96548.03
2023-02-04T17:44:20.256Z,96555.88
2023-02-04T17:49:46.019Z,96550.00
2023-02-04T17:52:15.212Z,96547.53
2023-02-04T17:54:42.199Z,96543.31
2023-02-04T17:57:21.762Z,96543.47
2023-02-04T17:59:56.948Z,96548.09
2023-02-04T18:02:26.545Z,96555.13
2023-02-04T18:04:57.992Z,96551.06
2023-02-04T18:07:24.709Z,96556.66
2023-02-04T18:09:51.598Z,96556.66
2023-02-04T18:12:19.452Z,96559.94
2023-02-04T18:14:46.905Z,96554.69
2023-02-04T18:17:15.975Z,96552.88
2023-02-04T18:19:45.123Z,96554.69
2023-02-04T18:22:16.133Z,96554.50
2023-02-04T18:24:45.358Z,96553.88
2023-02-04T18:27:16.910Z,96554.69
2023-02-04T18:29:46.923Z,96560.09
2023-02-04T18:32:19.373Z,96556.88
2023-02-04T18:34:47.782Z,96555.41
2023-02-04T18:37:29.234Z,96562.78
2023-02-04T18:40:01.111Z,96557.28
2023-02-04T18:42:27.848Z,96559.91
2023-02-04T18:44:56.692Z,96549.25
2023-02-04T18:47:31.626Z,96548.25
2023-02-04T18:49:59.935Z,96555.28
2023-02-04T18:52:37.085Z,96556.09
2023-02-04T18:55:21.850Z,96561.53
2023-02-04T18:57:48.607Z,96562.50
2023-02-04T19:00:27.457Z,96554.28
2023-02-04T19:02:57.786Z,96554.50
2023-02-04T19:05:33.013Z,96554.50
2023-02-04T19:08:25.165Z,96557.47
2023-02-04T19:10:54.066Z,96558.16
2023-02-04T19:13:23.220Z,96568.03
2023-02-04T19:15:56.629Z,96565.41
2023-02-04T19:18:26.284Z,96567.38
2023-02-04T19:20:53.847Z,96570.69
2023-02-04T19:23:24.420Z,96570.88
2023-02-04T19:25:52.442Z,96566.44
2023-02-04T19:28:33.617Z,96564.47
2023-02-04T19:31:02.032Z,96564.84
2023-02-04T19:33:36.445Z,96570.06
2023-02-04T19:36:35.775Z,96569.06
2023-02-04T19:39:18.884Z,96580.53
2023-02-04T19:41:48.265Z,96569.88
2023-02-04T19:44:35.064Z,96566.28
2023-02-04T19:47:23.483Z,96569.72
2023-02-04T19:49:50.965Z,96567.44
2023-02-04T19:52:50.167Z,96572.50
2023-02-04T19:55:30.626Z,96563.03
2023-02-04T19:58:00.261Z,96567.44
2023-02-04T20:00:44.659Z,96558.94
2023-02-04T20:03:26.418Z,96558.50
2023-02-04T20:05:53.769Z,96560.28
2023-02-04T20:08:41.709Z,96558.31
2023-02-04T20:11:41.982Z,96561.56
2023-02-04T20:14:23.182Z,96555.69
2023-02-04T20:16:52.201Z,96567.97
2023-02-04T20:19:21.742Z,96561.28
2023-02-04T20:22:00.840Z,96568.34
2023-02-04T20:24:33.696Z,96570.94
2023-02-04T20:27:11.157Z,96575.38
2023-02-04T20:29:38.329Z,96571.31
2023-02-04T20:32:17.246Z,96567.69
2023-02-04T20:34:44.055Z,96573.91
2023-02-04T20:37:21.669Z,96577.34
2023-02-04T20:39:48.523Z,96580.94
2023-02-04T20:42:29.533Z,96575.53
2023-02-04T20:45:02.228Z,96582.59
2023-02-04T20:47:30.016Z,96578.31
2023-02-04T20:49:58.460Z,96574.91
2023-02-04T20:53:11.546Z,96572.47
2023-02-04T20:55:38.253Z,96581.00
2023-02-04T20:58:16.438Z,96582.66
2023-02-04T21:00:43.727Z,96577.56
2023-02-04T21:03:25.977Z,96577.56
2023-02-04T21:05:54.373Z,96582.16
2023-02-04T21:08:32.046Z,96585.94
2023-02-04T21:11:00.817Z,96595.16
2023-02-04T21:13:29.070Z,96593.50
2023-02-04T21:15:57.327Z,96594.06
2023-02-04T21:18:24.478Z,96598.78
2023-02-04T21:20:51.657Z,96593.09
2023-02-04T21:23:19.070Z,96600.97
2023-02-04T21:25:46.700Z,96601.47
2023-02-04T21:28:14.637Z,96608.50
2023-02-04T21:30:42.730Z,96617.34
2023-02-04T21:33:11.503Z,96621.13
2023-02-04T21:35:38.717Z,96625.22
2023-02-04T21:38:05.836Z,96630.81
2023-02-04T21:40:34.301Z,96631.00
2023-02-04T21:43:02.780Z,96626.91
2023-02-04T21:45:29.861Z,96628.88
2023-02-04T21:47:58.050Z,96634.13
2023-02-04T21:50:24.802Z,96632.31
2023-02-04T21:52:51.459Z,96638.03
2023-02-04T21:55:21.623Z,96627.72
2023-02-04T21:57:50.706Z,96633.31
2023-02-04T22:00:19.138Z,96636.28
2023-02-04T22:02:45.896Z,96631.84
2023-02-04T22:05:14.021Z,96637.88
2023-02-04T22:07:40.847Z,96648.34
2023-02-04T22:10:09.969Z,96639.69
2023-02-04T22:12:36.831Z,96648.34
2023-02-04T22:15:04.689Z,96644.13
2023-02-04T22:17:31.500Z,96642.13
2023-02-04T22:19:58.424Z,96642.13
2023-02-04T22:22:26.478Z,96649.81
2023-02-04T22:24:53.407Z,96651.63
2023-02-04T22:27:20.110Z,96649.97
2023-02-04T22:29:46.872Z,96650.97
2023-02-04T22:32:13.577Z,96653.13
2023-02-04T22:34:42.192Z,96657.84
2023-02-04T22:37:08.843Z,96663.28
2023-02-04T22:39:38.031Z,96664.09
2023-02-04T22:42:06.549Z,96651.81
2023-02-04T22:44:33.162Z,96651.81
2023-02-04T22:47:03.521Z,96649.84
2023-02-04T22:49:32.751Z,96653.94
2023-02-04T22:51:59.715Z,96652.94
2023-02-04T22:54:26.440Z,96647.06
2023-02-04T22:56:54.617Z,96655.91
2023-02-04T22:59:21.223Z,96652.00
2023-02-04T23:01:47.969Z,96650.69
2023-02-04T23:04:14.742Z,96641.72
2023-02-04T23:06:41.604Z,96659.72
2023-02-04T23:09:08.401Z,96654.34
2023-02-04T23:11:35.698Z,96652.75
2023-02-04T23:14:03.912Z,96644.75
2023-02-04T23:16:30.649Z,96636.59
2023-02-04T23:18:57.930Z,96645.09
2023-02-04T23:21:24.871Z,96644.13
2023-02-04T23:23:52.675Z,96655.38
2023-02-04T23:26:19.622Z,96647.53
2023-02-04T23:28:46.628Z,96646.22
2023-02-04T23:31:14.650Z,96644.25
2023-02-04T23:33:41.320Z,96638.22
2023-02-04T23:36:08.456Z,96640.34
2023-02-04T23:38:35.267Z,96645.91
2023-02-04T23:41:01.898Z,96652.13
2023-02-04T23:43:28.901Z,96649.66
2023-02-04T23:45:57.221Z,96645.28
2023-02-04T23:48:25.756Z,96646.72
2023-02-04T23:50:52.567Z,96642.66
2023-02-04T23:53:19.438Z,96639.53
2023-02-04T23:55:46.283Z,96639.06
2023-02-04T23:58:13.039Z,96637.41
